Facebook Twitter

Wetterstation Möhlin

Messwerte
  Temperatur Wetter Niederschlag Luftdruck Wind
Mo, 17:00 Uhr 11° - 0 mm 1018.6 hPa 10 km/h W
Mo, 16:00 Uhr 11° - 0 mm 1019 hPa 14 km/h NW

Böen 22 km/h
Mo, 15:00 Uhr 12° - 0 mm 1019.1 hPa 6 km/h SW

Böen 18 km/h
Mo, 14:00 Uhr 11° - 0 mm 1019.4 hPa 5 km/h W

Böen 15 km/h
Mo, 13:00 Uhr 10° - 0 mm 1019.7 hPa 4 km/h NO

Böen 8 km/h
Mo, 12:00 Uhr 10° - 0 mm 1020 hPa 0 km/h NO
Mo, 11:00 Uhr 9° - 0 mm 1020.1 hPa 4 km/h SO
Mo, 10:00 Uhr 7° - 0 mm 1020.7 hPa 3 km/h NW
Mo, 09:00 Uhr 4° - 0 mm 1021.5 hPa 3 km/h SO

Böen 6 km/h
Mo, 08:00 Uhr 1° - 0 mm 1022.1 hPa 2 km/h O

Böen 8 km/h
Mo, 07:00 Uhr -1° - 0 mm 1022.4 hPa 2 km/h O

Böen 8 km/h
Mo, 06:00 Uhr 0° - 0 mm 1022.2 hPa 4 km/h SO

Böen 6 km/h
Mo, 05:00 Uhr 1° - 0 mm 1022.1 hPa 1 km/h O
Mo, 04:00 Uhr 1° - 0 mm 1021.9 hPa 2 km/h N

Böen 4 km/h
Mo, 03:00 Uhr 2° - 0 mm 1021.7 hPa 1 km/h N
Mo, 02:00 Uhr 3° - 0 mm 1021.9 hPa 3 km/h N
Mo, 01:00 Uhr 5° - 0 mm 1021.7 hPa 2 km/h NW

Böen 5 km/h
Mo, 00:00 Uhr 6° - 0 mm 1021.8 hPa 5 km/h SO

Böen 7 km/h
So, 23:00 Uhr 6° - 0 mm 1021.9 hPa 2 km/h NO
So, 22:00 Uhr 7° - 0 mm 1021.8 hPa 1 km/h SW

Alle Zeitangaben MESZ